createdAt,value
2022-10-01T00:02:07.653Z,100337.00
2022-10-01T00:04:37.310Z,100333.80
2022-10-01T00:07:09.543Z,100340.60
2022-10-01T00:09:37.573Z,100342.60
2022-10-01T00:12:05.645Z,100345.80
2022-10-01T00:14:33.457Z,100341.00
2022-10-01T00:17:01.325Z,100338.80
2022-10-01T00:19:29.430Z,100339.40
2022-10-01T00:21:57.255Z,100343.00
2022-10-01T00:24:25.351Z,100341.20
2022-10-01T00:26:53.224Z,100349.00
2022-10-01T00:29:21.027Z,100348.40
2022-10-01T00:31:49.208Z,100353.20
2022-10-01T00:34:17.044Z,100354.80
2022-10-01T00:36:44.841Z,100352.80
2022-10-01T00:39:12.796Z,100357.00
2022-10-01T00:41:40.778Z,100355.80
2022-10-01T00:44:33.704Z,100362.00
2022-10-01T00:47:21.735Z,100364.00
2022-10-01T00:49:55.448Z,100367.80
2022-10-01T00:52:31.979Z,100363.40
2022-10-01T00:55:14.652Z,100361.80
2022-10-01T00:57:45.224Z,100356.00
2022-10-01T01:00:13.893Z,100355.80
2022-10-01T01:02:42.381Z,100351.20
2022-10-01T01:05:13.667Z,100342.00
2022-10-01T01:07:49.946Z,100342.40
2022-10-01T01:10:29.856Z,100341.80
2022-10-01T01:13:14.333Z,100339.80
2022-10-01T01:15:59.354Z,100338.00
2022-10-01T01:18:42.639Z,100341.60
2022-10-01T01:21:27.872Z,100343.60
2022-10-01T01:24:29.642Z,100350.20
2022-10-01T01:27:18.105Z,100346.80
2022-10-01T01:30:08.383Z,100348.20
2022-10-01T01:33:03.274Z,100348.20
2022-10-01T01:35:39.447Z,100349.80
2022-10-01T01:38:15.890Z,100349.40
2022-10-01T01:40:47.445Z,100348.20
2022-10-01T01:43:20.637Z,100355.00
2022-10-01T01:45:52.372Z,100362.20
2022-10-01T01:48:20.339Z,100357.60
2022-10-01T01:51:29.182Z,100358.80
2022-10-01T01:53:57.335Z,100361.60
2022-10-01T01:56:25.185Z,100361.00
2022-10-01T01:58:54.089Z,100364.60
2022-10-01T02:01:40.225Z,100368.80
2022-10-01T02:04:15.832Z,100374.60
2022-10-01T02:07:11.452Z,100372.60
2022-10-01T02:10:11.035Z,100380.00
2022-10-01T02:13:33.428Z,100372.20
2022-10-01T02:16:48.165Z,100371.40
2022-10-01T02:19:31.142Z,100371.20
2022-10-01T02:22:44.214Z,100372.00
2022-10-01T02:25:14.098Z,100376.00
2022-10-01T02:27:52.528Z,100377.60
2022-10-01T02:30:20.482Z,100373.60
2022-10-01T02:32:51.335Z,100372.60
2022-10-01T02:35:20.288Z,100368.80
2022-10-01T02:37:53.107Z,100365.60
2022-10-01T02:40:28.146Z,100361.40
2022-10-01T02:43:02.909Z,100350.60
2022-10-01T02:45:37.071Z,100348.40
2022-10-01T02:48:09.998Z,100346.20
2022-10-01T02:51:12.611Z,100345.40
2022-10-01T02:53:49.190Z,100343.60
2022-10-01T02:56:48.370Z,100343.20
2022-10-01T02:59:16.748Z,100345.40
2022-10-01T03:01:44.868Z,100342.00
2022-10-01T03:04:13.375Z,100341.80
2022-10-01T03:06:41.142Z,100334.80
2022-10-01T03:09:08.909Z,100324.60
2022-10-01T03:11:36.826Z,100322.40
2022-10-01T03:14:05.978Z,100318.20
2022-10-01T03:16:33.740Z,100312.00
2022-10-01T03:19:01.586Z,100304.40
2022-10-01T03:21:29.706Z,100302.80
2022-10-01T03:23:57.604Z,100296.60
2022-10-01T03:26:25.455Z,100298.20
2022-10-01T03:28:53.397Z,100290.20
2022-10-01T03:31:21.226Z,100290.80
2022-10-01T03:33:49.018Z,100296.20
2022-10-01T03:36:17.164Z,100294.20
2022-10-01T03:38:45.167Z,100294.60
2022-10-01T03:41:12.899Z,100297.80
2022-10-01T03:43:40.665Z,100299.00
2022-10-01T03:46:08.619Z,100307.40
2022-10-01T03:48:36.892Z,100308.80
2022-10-01T03:51:05.485Z,100311.00
2022-10-01T03:53:33.384Z,100314.80
2022-10-01T03:56:01.759Z,100325.80
2022-10-01T03:58:29.635Z,100332.80
2022-10-01T04:00:57.823Z,100333.60
2022-10-01T04:03:25.791Z,100334.80
2022-10-01T04:05:53.556Z,100337.60
2022-10-01T04:08:24.423Z,100336.80
2022-10-01T04:10:52.392Z,100335.80
2022-10-01T04:13:20.243Z,100333.80
2022-10-01T04:15:48.791Z,100329.40
2022-10-01T04:18:17.442Z,100326.20
2022-10-01T04:20:45.219Z,100325.60
2022-10-01T04:23:13.094Z,100319.80
2022-10-01T04:25:41.872Z,100320.80
2022-10-01T04:28:12.196Z,100329.20
2022-10-01T04:30:43.407Z,100326.80
2022-10-01T04:33:16.784Z,100331.60
2022-10-01T04:35:44.662Z,100325.80
2022-10-01T04:38:16.684Z,100324.60
2022-10-01T04:40:44.459Z,100328.00
2022-10-01T04:43:13.303Z,100321.20
2022-10-01T04:45:41.145Z,100315.20
2022-10-01T04:48:08.952Z,100316.60
2022-10-01T04:50:36.784Z,100313.20
2022-10-01T04:53:04.610Z,100311.00
2022-10-01T04:55:32.403Z,100313.40
2022-10-01T04:58:00.216Z,100310.60
2022-10-01T05:00:28.117Z,100315.60
2022-10-01T05:02:56.268Z,100318.00
2022-10-01T05:05:27.220Z,100314.00
2022-10-01T05:07:55.742Z,100314.60
2022-10-01T05:10:24.960Z,100308.40
2022-10-01T05:12:52.763Z,100310.60
2022-10-01T05:15:21.022Z,100313.80
2022-10-01T05:17:48.822Z,100309.60
2022-10-01T05:20:23.059Z,100315.20
2022-10-01T05:22:50.874Z,100314.80
2022-10-01T05:25:19.996Z,100315.80
2022-10-01T05:27:47.865Z,100320.20
2022-10-01T05:30:24.149Z,100320.60
2022-10-01T05:32:57.421Z,100319.20
2022-10-01T05:35:25.700Z,100323.40
2022-10-01T05:37:58.909Z,100322.80
2022-10-01T05:40:28.580Z,100323.80
2022-10-01T05:42:58.457Z,100323.20
2022-10-01T05:45:29.241Z,100323.80
2022-10-01T05:48:03.030Z,100328.60
2022-10-01T05:50:35.136Z,100325.40
2022-10-01T05:53:03.072Z,100325.60
2022-10-01T05:55:33.434Z,100323.40
2022-10-01T05:58:10.512Z,100330.40
2022-10-01T06:00:41.353Z,100324.60
2022-10-01T06:03:15.321Z,100323.00
2022-10-01T06:05:44.290Z,100329.60
2022-10-01T06:08:12.230Z,100324.60
2022-10-01T06:10:40.690Z,100323.40
2022-10-01T06:13:08.474Z,100328.20
2022-10-01T06:15:38.966Z,100326.60
2022-10-01T06:18:08.987Z,100329.60
2022-10-01T06:20:37.725Z,100323.20
2022-10-01T06:23:12.274Z,100321.60
2022-10-01T06:25:42.777Z,100314.40
2022-10-01T06:28:14.897Z,100318.80
2022-10-01T06:30:43.718Z,100319.60
2022-10-01T06:33:13.797Z,100317.60
2022-10-01T06:35:51.154Z,100318.80
2022-10-01T06:38:22.074Z,100312.00
2022-10-01T06:40:55.354Z,100310.60
2022-10-01T06:43:26.013Z,100306.40
2022-10-01T06:45:54.745Z,100310.20
2022-10-01T06:48:23.099Z,100312.80
2022-10-01T06:50:52.367Z,100309.80
2022-10-01T06:53:20.382Z,100311.20
2022-10-01T06:55:49.925Z,100309.60
2022-10-01T06:58:23.322Z,100303.00
2022-10-01T07:00:51.247Z,100301.40
2022-10-01T07:03:23.015Z,100304.60
2022-10-01T07:05:50.810Z,100303.20
2022-10-01T07:08:19.636Z,100304.40
2022-10-01T07:10:47.451Z,100306.60
2022-10-01T07:13:21.022Z,100304.80
2022-10-01T07:15:48.802Z,100302.80
2022-10-01T07:18:17.134Z,100304.20
2022-10-01T07:20:45.072Z,100306.60
2022-10-01T07:23:15.676Z,100302.60
2022-10-01T07:25:45.036Z,100302.60
2022-10-01T07:28:18.564Z,100303.80
2022-10-01T07:30:58.407Z,100304.40
2022-10-01T07:33:26.789Z,100307.00
2022-10-01T07:35:55.131Z,100307.00
2022-10-01T07:38:22.895Z,100303.00
2022-10-01T07:40:53.005Z,100302.60
2022-10-01T07:43:21.822Z,100300.00
2022-10-01T07:45:50.227Z,100298.00
2022-10-01T07:48:19.416Z,100298.60
2022-10-01T07:50:47.308Z,100300.00
2022-10-01T07:53:15.238Z,100299.20
2022-10-01T07:55:44.781Z,100298.20
2022-10-01T07:58:13.005Z,100297.80
2022-10-01T08:00:40.842Z,100299.20
2022-10-01T08:03:12.376Z,100304.00
2022-10-01T08:05:43.362Z,100307.80
2022-10-01T08:08:11.318Z,100307.60
2022-10-01T08:10:39.781Z,100311.80
2022-10-01T08:13:15.068Z,100309.00
2022-10-01T08:15:54.771Z,100304.60
2022-10-01T08:18:23.655Z,100307.20
2022-10-01T08:20:52.052Z,100298.60
2022-10-01T08:23:19.919Z,100304.00
2022-10-01T08:25:48.087Z,100290.80
2022-10-01T08:28:16.631Z,100287.60
2022-10-01T08:30:44.739Z,100296.20
2022-10-01T08:33:14.277Z,100290.40
2022-10-01T08:35:43.671Z,100289.40
2022-10-01T08:38:13.278Z,100287.60
2022-10-01T08:40:50.497Z,100287.20
2022-10-01T08:43:37.058Z,100285.60
2022-10-01T08:46:16.373Z,100278.20
2022-10-01T08:49:01.546Z,100274.40
2022-10-01T08:51:52.419Z,100268.80
2022-10-01T08:54:46.988Z,100271.40
2022-10-01T08:57:19.399Z,100271.00
2022-10-01T09:00:01.537Z,100271.40
2022-10-01T09:02:38.117Z,100271.40
2022-10-01T09:05:19.161Z,100266.80
2022-10-01T09:08:20.429Z,100266.60
2022-10-01T09:11:31.944Z,100260.80
2022-10-01T09:14:49.273Z,100259.60
2022-10-01T09:17:30.421Z,100254.20
2022-10-01T09:20:16.822Z,100250.60
2022-10-01T09:23:03.090Z,100250.00
2022-10-01T09:25:34.346Z,100250.00
2022-10-01T09:28:14.332Z,100248.00
2022-10-01T09:31:16.546Z,100242.20
2022-10-01T09:33:56.646Z,100239.80
2022-10-01T09:36:46.215Z,100234.00
2022-10-01T09:39:38.365Z,100238.60
2022-10-01T09:42:06.754Z,100233.80
2022-10-01T09:44:35.108Z,100239.60
2022-10-01T09:47:02.900Z,100240.00
2022-10-01T09:49:39.628Z,100239.00
2022-10-01T09:52:18.445Z,100235.40
2022-10-01T09:54:57.949Z,100237.00
2022-10-01T09:57:55.594Z,100234.80
2022-10-01T10:00:28.122Z,100230.20
2022-10-01T10:02:56.429Z,100232.00
2022-10-01T10:05:28.295Z,100232.60
2022-10-01T10:08:10.747Z,100229.60
2022-10-01T10:10:40.510Z,100222.60
2022-10-01T10:13:11.429Z,100224.60
2022-10-01T10:15:57.560Z,100225.40
2022-10-01T10:18:34.642Z,100224.00
2022-10-01T10:21:08.015Z,100222.60
2022-10-01T10:23:56.554Z,100219.00
2022-10-01T10:26:41.151Z,100215.40
2022-10-01T10:29:26.687Z,100214.60
2022-10-01T10:31:55.583Z,100206.80
2022-10-01T10:34:35.820Z,100203.40
2022-10-01T10:37:11.757Z,100195.80
2022-10-01T10:39:42.103Z,100190.40
2022-10-01T10:42:18.922Z,100188.00
2022-10-01T10:44:49.984Z,100173.40
2022-10-01T10:47:21.438Z,100174.40
2022-10-01T10:50:06.010Z,100171.80
2022-10-01T10:52:37.303Z,100166.20
2022-10-01T10:55:41.154Z,100161.40
2022-10-01T10:58:15.349Z,100157.60
2022-10-01T11:00:50.847Z,100149.20
2022-10-01T11:03:26.170Z,100146.60
2022-10-01T11:05:56.458Z,100146.80
2022-10-01T11:08:27.826Z,100151.00
2022-10-01T11:11:17.262Z,100143.40
2022-10-01T11:14:07.213Z,100132.20
2022-10-01T11:16:47.295Z,100125.60
2022-10-01T11:20:00.356Z,100118.80
2022-10-01T11:23:07.132Z,100120.40
2022-10-01T11:26:06.412Z,100119.80
2022-10-01T11:28:58.089Z,100111.00
2022-10-01T11:31:31.967Z,100102.80
2022-10-01T11:34:48.690Z,100094.20
2022-10-01T11:37:34.393Z,100091.20
2022-10-01T11:40:15.187Z,100080.20
2022-10-01T11:42:45.013Z,100077.60
2022-10-01T11:45:46.800Z,100078.80
2022-10-01T11:48:27.714Z,100063.80
2022-10-01T11:51:01.851Z,100057.40
2022-10-01T11:53:37.713Z,100052.00
2022-10-01T11:56:39.692Z,100047.60
2022-10-01T11:59:21.595Z,100038.40
2022-10-01T12:02:29.950Z,100041.80
2022-10-01T12:05:21.008Z,100043.00
2022-10-01T12:08:09.363Z,100042.40
2022-10-01T12:11:17.907Z,100034.40
2022-10-01T12:13:59.340Z,100026.60
2022-10-01T12:16:52.603Z,100021.80
2022-10-01T12:19:34.392Z,100021.00
2022-10-01T12:22:12.855Z,100022.40
2022-10-01T12:24:44.436Z,100023.20
2022-10-01T12:27:50.269Z,100024.40
2022-10-01T12:30:31.040Z,100017.60
2022-10-01T12:33:44.007Z,100015.80
2022-10-01T12:36:41.199Z,100014.00
2022-10-01T12:39:34.264Z,100006.20
2022-10-01T12:42:37.873Z,99994.60
2022-10-01T12:45:20.409Z,99993.80
2022-10-01T12:48:10.518Z,99992.40
2022-10-01T12:50:43.693Z,99990.00
2022-10-01T12:53:39.287Z,99984.40
2022-10-01T12:56:23.262Z,99985.00
2022-10-01T12:59:30.983Z,99976.20
2022-10-01T13:02:41.132Z,99966.60
2022-10-01T13:05:38.569Z,99964.80
2022-10-01T13:08:18.426Z,99963.80
2022-10-01T13:11:00.016Z,99964.60
2022-10-01T13:13:35.453Z,99961.20
2022-10-01T13:16:12.970Z,99964.00
2022-10-01T13:19:00.627Z,99962.40
2022-10-01T13:21:53.428Z,99960.20
2022-10-01T13:24:42.678Z,99958.60
2022-10-01T13:27:21.268Z,99956.80
2022-10-01T13:30:04.626Z,99951.00
2022-10-01T13:32:51.386Z,99952.20
2022-10-01T13:35:24.848Z,99949.00
2022-10-01T13:37:53.661Z,99944.40
2022-10-01T13:40:31.657Z,99937.00
2022-10-01T13:43:23.439Z,99940.60
2022-10-01T13:45:54.532Z,99936.80
2022-10-01T13:48:32.383Z,99933.00
2022-10-01T13:51:12.849Z,99926.00
2022-10-01T13:53:43.767Z,99932.00
2022-10-01T13:56:15.420Z,99929.40
2022-10-01T13:58:46.062Z,99929.20
2022-10-01T14:01:21.312Z,99932.00
2022-10-01T14:04:36.194Z,99925.60
2022-10-01T14:07:15.952Z,99916.80
2022-10-01T14:09:49.342Z,99916.80
2022-10-01T14:12:54.063Z,99902.60
2022-10-01T14:15:50.821Z,99898.80
2022-10-01T14:18:24.297Z,99893.20
2022-10-01T14:21:20.201Z,99891.20
2022-10-01T14:24:24.442Z,99888.00
2022-10-01T14:26:58.111Z,99886.60
2022-10-01T14:29:45.365Z,99890.00
2022-10-01T14:32:24.782Z,99888.60
2022-10-01T14:35:41.167Z,99889.00
2022-10-01T14:38:17.882Z,99889.20
2022-10-01T14:40:48.799Z,99882.60
2022-10-01T14:43:19.550Z,99872.60
2022-10-01T14:46:03.386Z,99875.80
2022-10-01T14:48:34.947Z,99871.00
2022-10-01T14:51:06.918Z,99866.40
2022-10-01T14:53:38.436Z,99870.20
2022-10-01T14:56:13.467Z,99865.80
2022-10-01T14:58:45.633Z,99863.40
2022-10-01T15:01:21.647Z,99859.00
2022-10-01T15:03:51.069Z,99859.60
2022-10-01T15:06:29.777Z,99856.00
2022-10-01T15:09:14.864Z,99851.80
2022-10-01T15:11:44.846Z,99846.00
2022-10-01T15:14:24.840Z,99842.60
2022-10-01T15:16:52.810Z,99840.40
2022-10-01T15:19:23.078Z,99847.40
2022-10-01T15:21:57.449Z,99845.00
2022-10-01T15:24:41.948Z,99837.60
2022-10-01T15:27:12.268Z,99831.00
2022-10-01T15:29:42.945Z,99829.40
2022-10-01T15:32:17.523Z,99823.40
2022-10-01T15:34:51.969Z,99817.60
2022-10-01T15:37:31.651Z,99819.80
2022-10-01T15:40:01.050Z,99813.20
2022-10-01T15:42:34.846Z,99804.60
2022-10-01T15:45:08.491Z,99802.80
2022-10-01T15:47:51.708Z,99810.60
2022-10-01T15:50:24.292Z,99808.80
2022-10-01T15:53:22.323Z,99803.60
2022-10-01T15:55:56.997Z,99801.80
2022-10-01T15:58:35.661Z,99804.00
2022-10-01T16:01:09.335Z,99797.40
2022-10-01T16:03:42.424Z,99802.20
2022-10-01T16:06:44.009Z,99795.00
2022-10-01T16:09:30.364Z,99792.40
2022-10-01T16:12:10.353Z,99794.20
2022-10-01T16:14:42.683Z,99785.00
2022-10-01T16:17:16.610Z,99778.60
2022-10-01T16:20:22.182Z,99776.00
2022-10-01T16:22:49.978Z,99774.40
2022-10-01T16:25:24.018Z,99764.60
2022-10-01T16:28:00.846Z,99760.20
2022-10-01T16:30:32.577Z,99754.40
2022-10-01T16:33:06.083Z,99749.40
2022-10-01T16:35:39.809Z,99742.00
2022-10-01T16:38:09.123Z,99738.00
2022-10-01T16:40:43.629Z,99736.80
2022-10-01T16:43:24.342Z,99738.20
2022-10-01T16:45:52.223Z,99738.80
2022-10-01T16:48:24.635Z,99735.40
2022-10-01T16:50:59.157Z,99739.20
2022-10-01T16:53:27.384Z,99745.00
2022-10-01T16:55:57.078Z,99739.80
2022-10-01T16:58:25.291Z,99729.40
2022-10-01T17:00:53.217Z,99733.60
2022-10-01T17:03:22.548Z,99729.20
2022-10-01T17:05:50.386Z,99726.20
2022-10-01T17:08:18.253Z,99722.80
2022-10-01T17:10:58.554Z,99724.20
2022-10-01T17:13:33.971Z,99718.80
2022-10-01T17:16:04.601Z,99709.80
2022-10-01T17:18:32.589Z,99705.00
2022-10-01T17:21:04.118Z,99700.80
2022-10-01T17:23:32.055Z,99698.80
2022-10-01T17:25:59.818Z,99695.20
2022-10-01T17:28:27.698Z,99691.80
2022-10-01T17:30:56.199Z,99685.00
2022-10-01T17:33:24.744Z,99700.20
2022-10-01T17:35:55.519Z,99701.60
2022-10-01T17:38:23.799Z,99700.20
2022-10-01T17:40:56.387Z,99693.00
2022-10-01T17:43:24.677Z,99699.00
2022-10-01T17:45:58.678Z,99701.40
2022-10-01T17:48:28.409Z,99700.40
2022-10-01T17:51:07.410Z,99699.40
2022-10-01T17:53:42.108Z,99697.80
2022-10-01T17:56:18.539Z,99698.60
2022-10-01T17:58:46.902Z,99698.40
2022-10-01T18:01:19.963Z,99694.00
2022-10-01T18:03:52.038Z,99691.40
2022-10-01T18:06:19.821Z,99693.80
2022-10-01T18:08:56.204Z,99690.60
2022-10-01T18:11:27.956Z,99683.00
2022-10-01T18:13:56.077Z,99679.40
2022-10-01T18:16:24.243Z,99682.00
2022-10-01T18:21:48.771Z,99681.60
2022-10-01T18:24:17.319Z,99680.00
2022-10-01T18:26:45.774Z,99674.40
2022-10-01T18:29:24.054Z,99673.40
2022-10-01T18:32:00.682Z,99673.60
2022-10-01T18:34:40.302Z,99665.60
2022-10-01T18:37:29.366Z,99662.60
2022-10-01T18:40:10.650Z,99660.60
2022-10-01T18:43:04.331Z,99654.60
2022-10-01T18:45:43.068Z,99646.60
2022-10-01T18:48:33.510Z,99647.60
2022-10-01T18:51:35.512Z,99649.00
2022-10-01T18:54:39.327Z,99647.80
2022-10-01T18:57:40.763Z,99643.20
2022-10-01T19:00:12.136Z,99640.60
2022-10-01T19:03:13.357Z,99639.60
2022-10-01T19:06:11.486Z,99637.80
2022-10-01T19:09:16.220Z,99638.40
2022-10-01T19:12:04.872Z,99634.80
2022-10-01T19:15:00.647Z,99637.40
2022-10-01T19:18:17.145Z,99633.80
2022-10-01T19:20:53.762Z,99628.00
2022-10-01T19:23:50.989Z,99625.60
2022-10-01T19:26:27.339Z,99627.40
2022-10-01T19:29:24.893Z,99629.20
2022-10-01T19:32:11.011Z,99628.40
2022-10-01T19:34:49.835Z,99623.80
2022-10-01T19:37:29.971Z,99619.40
2022-10-01T19:40:06.914Z,99612.40
2022-10-01T19:42:40.266Z,99615.80
2022-10-01T19:45:26.300Z,99609.20
2022-10-01T19:48:29.760Z,99600.60
2022-10-01T19:51:07.920Z,99597.40
2022-10-01T19:53:39.708Z,99600.40
2022-10-01T19:56:12.238Z,99608.60
2022-10-01T19:58:40.034Z,99605.40
2022-10-01T20:01:16.488Z,99604.60
2022-10-01T20:03:57.469Z,99606.20
2022-10-01T20:06:37.475Z,99604.20
2022-10-01T20:09:16.533Z,99613.80
2022-10-01T20:11:55.444Z,99607.80
2022-10-01T20:15:02.830Z,99605.00
2022-10-01T20:18:27.805Z,99608.60
2022-10-01T20:21:30.512Z,99610.00
2022-10-01T20:24:28.983Z,99605.80
2022-10-01T20:27:22.536Z,99609.60
2022-10-01T20:30:06.823Z,99607.80
2022-10-01T20:33:13.966Z,99606.00
2022-10-01T20:36:06.001Z,99600.40
2022-10-01T20:38:43.810Z,99603.00
2022-10-01T20:41:19.612Z,99597.40
2022-10-01T20:43:51.887Z,99596.20
2022-10-01T20:46:44.383Z,99594.00
2022-10-01T20:49:18.189Z,99590.80
2022-10-01T20:52:27.334Z,99590.60
2022-10-01T20:55:05.140Z,99583.60
2022-10-01T20:57:47.160Z,99587.60
2022-10-01T21:00:20.130Z,99580.20
2022-10-01T21:03:11.046Z,99581.00
2022-10-01T21:05:46.856Z,99581.00
2022-10-01T21:08:32.621Z,99581.20
2022-10-01T21:11:33.425Z,99581.80
2022-10-01T21:14:34.584Z,99579.20
2022-10-01T21:17:28.221Z,99585.80
2022-10-01T21:20:57.314Z,99602.20
2022-10-01T21:23:53.802Z,99627.20
2022-10-01T21:26:37.442Z,99635.80
2022-10-01T21:29:26.303Z,99628.20
2022-10-01T21:32:18.220Z,99633.80
2022-10-01T21:35:23.082Z,99630.00
2022-10-01T21:38:27.985Z,99628.00
2022-10-01T21:41:40.117Z,99635.20
2022-10-01T21:44:24.520Z,99637.60
2022-10-01T21:47:31.626Z,99640.60
2022-10-01T21:50:53.354Z,99635.00
2022-10-01T21:53:42.359Z,99636.40
2022-10-01T21:56:21.974Z,99635.80
2022-10-01T21:59:08.228Z,99635.40
2022-10-01T22:02:39.168Z,99640.80
2022-10-01T22:05:42.149Z,99642.60
2022-10-01T22:08:36.724Z,99633.40
2022-10-01T22:11:14.849Z,99635.60
2022-10-01T22:14:20.592Z,99639.40
2022-10-01T22:16:57.484Z,99638.40
2022-10-01T22:19:37.243Z,99639.00
2022-10-01T22:22:11.922Z,99639.00
2022-10-01T22:24:47.587Z,99635.60
2022-10-01T22:27:32.122Z,99636.80
2022-10-01T22:30:12.696Z,99636.60
2022-10-01T22:32:47.160Z,99638.00
2022-10-01T22:35:21.740Z,99642.00
2022-10-01T22:38:12.538Z,99642.20
2022-10-01T22:40:46.962Z,99646.60
2022-10-01T22:43:15.058Z,99646.80
2022-10-01T22:46:04.604Z,99649.00
2022-10-01T22:49:09.897Z,99651.80
2022-10-01T22:52:03.050Z,99650.40
2022-10-01T22:55:10.320Z,99653.60
2022-10-01T22:58:01.122Z,99649.80
2022-10-01T23:00:31.827Z,99652.20
2022-10-01T23:03:39.845Z,99656.20
2022-10-01T23:06:39.390Z,99657.60
2022-10-01T23:09:21.170Z,99663.00
2022-10-01T23:13:05.475Z,99656.00
2022-10-01T23:16:01.096Z,99654.60
2022-10-01T23:19:13.422Z,99659.60
2022-10-01T23:21:43.470Z,99657.20
2022-10-01T23:24:31.853Z,99663.00
2022-10-01T23:27:08.646Z,99659.80
2022-10-01T23:30:09.649Z,99664.80
2022-10-01T23:32:52.953Z,99662.60
2022-10-01T23:35:59.306Z,99666.20
2022-10-01T23:38:32.756Z,99661.20
2022-10-01T23:41:28.394Z,99670.40
2022-10-01T23:44:10.350Z,99674.40
2022-10-01T23:46:41.611Z,99675.20
2022-10-01T23:49:16.877Z,99672.80
2022-10-01T23:51:51.974Z,99674.00
2022-10-01T23:54:39.938Z,99675.80
2022-10-01T23:57:31.308Z,99675.60
